sensor_id;sensor_type;location;lat;lon;timestamp;P1;durP1;ratioP1;P2;durP2;ratioP2
15402;SDS011;7799;53.478;10.170;2023-06-14T00:00:36;1.47;;;1.37;;
15402;SDS011;7799;53.478;10.170;2023-06-14T00:03:06;2.73;;;1.40;;
15402;SDS011;7799;53.478;10.170;2023-06-14T00:05:33;1.97;;;1.30;;
15402;SDS011;7799;53.478;10.170;2023-06-14T00:08:04;1.83;;;1.53;;
15402;SDS011;7799;53.478;10.170;2023-06-14T00:10:33;2.40;;;1.30;;
15402;SDS011;7799;53.478;10.170;2023-06-14T00:13:00;1.37;;;1.10;;
15402;SDS011;7799;53.478;10.170;2023-06-14T00:15:28;1.67;;;1.43;;
15402;SDS011;7799;53.478;10.170;2023-06-14T00:17:56;1.53;;;1.37;;
15402;SDS011;7799;53.478;10.170;2023-06-14T00:20:25;1.40;;;1.10;;
15402;SDS011;7799;53.478;10.170;2023-06-14T00:22:52;1.03;;;1.00;;
15402;SDS011;7799;53.478;10.170;2023-06-14T00:25:19;1.30;;;1.20;;
15402;SDS011;7799;53.478;10.170;2023-06-14T00:27:46;2.00;;;1.23;;
15402;SDS011;7799;53.478;10.170;2023-06-14T00:30:14;1.40;;;1.30;;
15402;SDS011;7799;53.478;10.170;2023-06-14T00:32:42;1.17;;;1.00;;
15402;SDS011;7799;53.478;10.170;2023-06-14T00:35:09;2.63;;;1.53;;
15402;SDS011;7799;53.478;10.170;2023-06-14T00:37:36;2.00;;;1.30;;
15402;SDS011;7799;53.478;10.170;2023-06-14T00:40:03;1.87;;;1.20;;
15402;SDS011;7799;53.478;10.170;2023-06-14T00:42:31;1.43;;;1.30;;
15402;SDS011;7799;53.478;10.170;2023-06-14T00:44:57;1.27;;;1.17;;
15402;SDS011;7799;53.478;10.170;2023-06-14T00:47:24;1.57;;;1.47;;
15402;SDS011;7799;53.478;10.170;2023-06-14T00:49:53;1.40;;;1.30;;
15402;SDS011;7799;53.478;10.170;2023-06-14T00:52:20;1.77;;;1.20;;
15402;SDS011;7799;53.478;10.170;2023-06-14T00:54:50;1.43;;;1.33;;
15402;SDS011;7799;53.478;10.170;2023-06-14T00:57:18;1.90;;;1.03;;
15402;SDS011;7799;53.478;10.170;2023-06-14T00:59:46;1.27;;;1.17;;
15402;SDS011;7799;53.478;10.170;2023-06-14T01:02:15;1.20;;;1.10;;
15402;SDS011;7799;53.478;10.170;2023-06-14T01:04:42;1.40;;;1.30;;
15402;SDS011;7799;53.478;10.170;2023-06-14T01:07:18;1.10;;;1.00;;
15402;SDS011;7799;53.478;10.170;2023-06-14T01:09:57;2.17;;;1.20;;
15402;SDS011;7799;53.478;10.170;2023-06-14T01:12:37;0.90;;;0.90;;
15402;SDS011;7799;53.478;10.170;2023-06-14T01:15:06;1.57;;;1.40;;
15402;SDS011;7799;53.478;10.170;2023-06-14T01:17:34;1.63;;;1.20;;
15402;SDS011;7799;53.478;10.170;2023-06-14T01:20:01;1.50;;;1.20;;
15402;SDS011;7799;53.478;10.170;2023-06-14T01:22:34;1.67;;;1.30;;
15402;SDS011;7799;53.478;10.170;2023-06-14T01:25:02;1.00;;;0.90;;
15402;SDS011;7799;53.478;10.170;2023-06-14T01:27:29;1.10;;;1.00;;
15402;SDS011;7799;53.478;10.170;2023-06-14T01:29:57;1.10;;;1.00;;
15402;SDS011;7799;53.478;10.170;2023-06-14T01:32:27;1.77;;;1.10;;
15402;SDS011;7799;53.478;10.170;2023-06-14T01:34:55;1.20;;;1.10;;
15402;SDS011;7799;53.478;10.170;2023-06-14T01:37:21;2.30;;;1.10;;
15402;SDS011;7799;53.478;10.170;2023-06-14T01:39:48;0.90;;;0.90;;
15402;SDS011;7799;53.478;10.170;2023-06-14T01:42:19;1.60;;;0.90;;
15402;SDS011;7799;53.478;10.170;2023-06-14T01:44:46;0.80;;;0.80;;
15402;SDS011;7799;53.478;10.170;2023-06-14T01:47:12;1.23;;;1.13;;
15402;SDS011;7799;53.478;10.170;2023-06-14T01:49:40;1.23;;;0.93;;
15402;SDS011;7799;53.478;10.170;2023-06-14T01:52:07;1.30;;;1.20;;
15402;SDS011;7799;53.478;10.170;2023-06-14T01:54:35;1.10;;;1.00;;
15402;SDS011;7799;53.478;10.170;2023-06-14T01:57:07;1.70;;;1.23;;
15402;SDS011;7799;53.478;10.170;2023-06-14T01:59:35;0.80;;;0.80;;
15402;SDS011;7799;53.478;10.170;2023-06-14T02:02:02;0.83;;;0.83;;
15402;SDS011;7799;53.478;10.170;2023-06-14T02:04:31;1.10;;;1.00;;
15402;SDS011;7799;53.478;10.170;2023-06-14T02:06:57;1.10;;;1.00;;
15402;SDS011;7799;53.478;10.170;2023-06-14T02:09:24;1.47;;;1.37;;
15402;SDS011;7799;53.478;10.170;2023-06-14T02:11:53;1.20;;;1.10;;
15402;SDS011;7799;53.478;10.170;2023-06-14T02:14:20;1.00;;;0.93;;
15402;SDS011;7799;53.478;10.170;2023-06-14T02:16:48;1.10;;;0.97;;
15402;SDS011;7799;53.478;10.170;2023-06-14T02:19:15;1.13;;;1.03;;
15402;SDS011;7799;53.478;10.170;2023-06-14T02:21:42;1.87;;;1.10;;
15402;SDS011;7799;53.478;10.170;2023-06-14T02:24:08;1.27;;;1.17;;
15402;SDS011;7799;53.478;10.170;2023-06-14T02:26:35;1.20;;;1.10;;
15402;SDS011;7799;53.478;10.170;2023-06-14T02:29:03;1.33;;;1.17;;
15402;SDS011;7799;53.478;10.170;2023-06-14T02:31:30;1.30;;;1.20;;
15402;SDS011;7799;53.478;10.170;2023-06-14T02:33:58;1.17;;;1.00;;
15402;SDS011;7799;53.478;10.170;2023-06-14T02:36:28;0.90;;;0.90;;
15402;SDS011;7799;53.478;10.170;2023-06-14T02:38:55;1.27;;;1.17;;
15402;SDS011;7799;53.478;10.170;2023-06-14T02:41:23;1.10;;;1.00;;
15402;SDS011;7799;53.478;10.170;2023-06-14T02:43:52;1.47;;;0.97;;
15402;SDS011;7799;53.478;10.170;2023-06-14T02:46:19;2.23;;;0.97;;
15402;SDS011;7799;53.478;10.170;2023-06-14T02:48:48;1.00;;;0.90;;
15402;SDS011;7799;53.478;10.170;2023-06-14T02:51:16;1.23;;;1.10;;
15402;SDS011;7799;53.478;10.170;2023-06-14T02:53:42;1.67;;;1.23;;
15402;SDS011;7799;53.478;10.170;2023-06-14T02:56:10;1.33;;;1.13;;
15402;SDS011;7799;53.478;10.170;2023-06-14T02:58:36;1.37;;;1.00;;
15402;SDS011;7799;53.478;10.170;2023-06-14T03:01:05;0.73;;;0.73;;
15402;SDS011;7799;53.478;10.170;2023-06-14T03:03:33;1.73;;;1.00;;
15402;SDS011;7799;53.478;10.170;2023-06-14T03:06:00;0.70;;;0.70;;
15402;SDS011;7799;53.478;10.170;2023-06-14T03:08:32;1.03;;;0.90;;
15402;SDS011;7799;53.478;10.170;2023-06-14T03:11:07;0.90;;;0.90;;
15402;SDS011;7799;53.478;10.170;2023-06-14T03:13:35;1.10;;;1.00;;
15402;SDS011;7799;53.478;10.170;2023-06-14T03:16:04;1.00;;;0.90;;
15402;SDS011;7799;53.478;10.170;2023-06-14T03:18:34;2.10;;;1.20;;
15402;SDS011;7799;53.478;10.170;2023-06-14T03:21:02;1.30;;;1.07;;
15402;SDS011;7799;53.478;10.170;2023-06-14T03:23:30;1.83;;;1.30;;
15402;SDS011;7799;53.478;10.170;2023-06-14T03:25:58;1.00;;;1.00;;
15402;SDS011;7799;53.478;10.170;2023-06-14T03:28:25;1.50;;;1.10;;
15402;SDS011;7799;53.478;10.170;2023-06-14T03:30:54;2.43;;;1.43;;
15402;SDS011;7799;53.478;10.170;2023-06-14T03:33:21;1.53;;;1.30;;
15402;SDS011;7799;53.478;10.170;2023-06-14T03:35:50;2.33;;;1.50;;
15402;SDS011;7799;53.478;10.170;2023-06-14T03:38:17;2.80;;;1.43;;
15402;SDS011;7799;53.478;10.170;2023-06-14T03:40:44;1.60;;;1.50;;
15402;SDS011;7799;53.478;10.170;2023-06-14T03:43:13;2.27;;;1.80;;
15402;SDS011;7799;53.478;10.170;2023-06-14T03:45:40;2.17;;;1.70;;
15402;SDS011;7799;53.478;10.170;2023-06-14T03:48:08;1.60;;;1.50;;
15402;SDS011;7799;53.478;10.170;2023-06-14T03:50:35;1.97;;;1.60;;
15402;SDS011;7799;53.478;10.170;2023-06-14T03:53:03;1.67;;;1.57;;
15402;SDS011;7799;53.478;10.170;2023-06-14T03:55:31;1.83;;;1.57;;
15402;SDS011;7799;53.478;10.170;2023-06-14T03:57:58;1.93;;;1.73;;
15402;SDS011;7799;53.478;10.170;2023-06-14T04:00:27;1.83;;;1.50;;
15402;SDS011;7799;53.478;10.170;2023-06-14T04:02:54;1.97;;;1.80;;
15402;SDS011;7799;53.478;10.170;2023-06-14T04:05:21;1.70;;;1.43;;
15402;SDS011;7799;53.478;10.170;2023-06-14T04:07:52;1.70;;;1.40;;
15402;SDS011;7799;53.478;10.170;2023-06-14T04:10:20;1.37;;;1.27;;
15402;SDS011;7799;53.478;10.170;2023-06-14T04:12:47;1.37;;;1.27;;
15402;SDS011;7799;53.478;10.170;2023-06-14T04:15:14;1.50;;;1.20;;
15402;SDS011;7799;53.478;10.170;2023-06-14T04:17:42;2.20;;;1.00;;
15402;SDS011;7799;53.478;10.170;2023-06-14T04:20:09;1.00;;;1.00;;
15402;SDS011;7799;53.478;10.170;2023-06-14T04:22:36;1.10;;;1.00;;
15402;SDS011;7799;53.478;10.170;2023-06-14T04:25:05;1.50;;;1.10;;
15402;SDS011;7799;53.478;10.170;2023-06-14T04:27:32;1.27;;;1.17;;
15402;SDS011;7799;53.478;10.170;2023-06-14T04:30:02;1.23;;;1.00;;
15402;SDS011;7799;53.478;10.170;2023-06-14T04:32:36;1.73;;;1.43;;
15402;SDS011;7799;53.478;10.170;2023-06-14T04:35:07;1.10;;;1.00;;
15402;SDS011;7799;53.478;10.170;2023-06-14T04:37:37;1.27;;;1.17;;
15402;SDS011;7799;53.478;10.170;2023-06-14T04:40:07;2.03;;;1.40;;
15402;SDS011;7799;53.478;10.170;2023-06-14T04:42:36;1.60;;;1.40;;
15402;SDS011;7799;53.478;10.170;2023-06-14T04:45:06;1.50;;;1.40;;
15402;SDS011;7799;53.478;10.170;2023-06-14T04:47:36;1.53;;;1.40;;
15402;SDS011;7799;53.478;10.170;2023-06-14T04:50:05;1.50;;;1.40;;
15402;SDS011;7799;53.478;10.170;2023-06-14T04:52:33;3.00;;;1.50;;
15402;SDS011;7799;53.478;10.170;2023-06-14T04:55:00;2.27;;;1.43;;
15402;SDS011;7799;53.478;10.170;2023-06-14T04:57:28;1.60;;;1.20;;
15402;SDS011;7799;53.478;10.170;2023-06-14T04:59:57;2.73;;;1.47;;
15402;SDS011;7799;53.478;10.170;2023-06-14T05:02:27;1.60;;;1.17;;
15402;SDS011;7799;53.478;10.170;2023-06-14T05:04:56;2.23;;;1.70;;
15402;SDS011;7799;53.478;10.170;2023-06-14T05:07:24;1.90;;;1.70;;
15402;SDS011;7799;53.478;10.170;2023-06-14T05:09:51;1.70;;;1.47;;
15402;SDS011;7799;53.478;10.170;2023-06-14T05:12:18;1.83;;;1.47;;
15402;SDS011;7799;53.478;10.170;2023-06-14T05:14:45;1.80;;;1.47;;
15402;SDS011;7799;53.478;10.170;2023-06-14T05:17:13;1.50;;;1.40;;
15402;SDS011;7799;53.478;10.170;2023-06-14T05:19:42;1.60;;;1.47;;
15402;SDS011;7799;53.478;10.170;2023-06-14T05:22:08;1.30;;;1.20;;
15402;SDS011;7799;53.478;10.170;2023-06-14T05:24:36;2.37;;;1.70;;
15402;SDS011;7799;53.478;10.170;2023-06-14T05:27:03;1.70;;;1.60;;
15402;SDS011;7799;53.478;10.170;2023-06-14T05:29:30;2.10;;;1.97;;
15402;SDS011;7799;53.478;10.170;2023-06-14T05:31:57;2.13;;;1.50;;
15402;SDS011;7799;53.478;10.170;2023-06-14T05:34:23;2.10;;;1.63;;
15402;SDS011;7799;53.478;10.170;2023-06-14T05:36:50;1.70;;;1.60;;
15402;SDS011;7799;53.478;10.170;2023-06-14T05:39:17;2.40;;;1.57;;
15402;SDS011;7799;53.478;10.170;2023-06-14T05:41:45;2.73;;;1.70;;
15402;SDS011;7799;53.478;10.170;2023-06-14T05:44:11;2.97;;;1.80;;
15402;SDS011;7799;53.478;10.170;2023-06-14T05:46:38;2.17;;;1.97;;
15402;SDS011;7799;53.478;10.170;2023-06-14T05:49:05;2.30;;;2.10;;
15402;SDS011;7799;53.478;10.170;2023-06-14T05:51:31;2.03;;;1.90;;
15402;SDS011;7799;53.478;10.170;2023-06-14T05:53:58;2.03;;;1.83;;
15402;SDS011;7799;53.478;10.170;2023-06-14T05:56:25;2.00;;;1.90;;
15402;SDS011;7799;53.478;10.170;2023-06-14T05:58:53;3.47;;;2.10;;
15402;SDS011;7799;53.478;10.170;2023-06-14T06:01:20;2.27;;;1.97;;
15402;SDS011;7799;53.478;10.170;2023-06-14T06:03:47;2.00;;;1.90;;
15402;SDS011;7799;53.478;10.170;2023-06-14T06:06:13;1.83;;;1.73;;
15402;SDS011;7799;53.478;10.170;2023-06-14T06:08:41;2.43;;;1.80;;
15402;SDS011;7799;53.478;10.170;2023-06-14T06:11:08;2.10;;;1.70;;
15402;SDS011;7799;53.478;10.170;2023-06-14T06:13:34;2.80;;;1.97;;
15402;SDS011;7799;53.478;10.170;2023-06-14T06:16:03;2.20;;;2.00;;
15402;SDS011;7799;53.478;10.170;2023-06-14T06:18:30;2.13;;;1.90;;
15402;SDS011;7799;53.478;10.170;2023-06-14T06:20:56;1.60;;;1.50;;
15402;SDS011;7799;53.478;10.170;2023-06-14T06:23:23;1.57;;;1.47;;
15402;SDS011;7799;53.478;10.170;2023-06-14T06:25:50;2.00;;;1.80;;
15402;SDS011;7799;53.478;10.170;2023-06-14T06:28:17;2.03;;;1.50;;
15402;SDS011;7799;53.478;10.170;2023-06-14T06:30:43;2.10;;;1.70;;
15402;SDS011;7799;53.478;10.170;2023-06-14T06:33:11;2.37;;;1.50;;
15402;SDS011;7799;53.478;10.170;2023-06-14T06:35:39;2.20;;;1.63;;
15402;SDS011;7799;53.478;10.170;2023-06-14T06:38:05;1.30;;;1.20;;
15402;SDS011;7799;53.478;10.170;2023-06-14T06:40:33;1.20;;;1.10;;
15402;SDS011;7799;53.478;10.170;2023-06-14T06:43:00;1.90;;;1.77;;
15402;SDS011;7799;53.478;10.170;2023-06-14T06:45:27;1.80;;;1.70;;
15402;SDS011;7799;53.478;10.170;2023-06-14T06:47:54;1.97;;;1.80;;
15402;SDS011;7799;53.478;10.170;2023-06-14T06:50:22;1.50;;;1.40;;
15402;SDS011;7799;53.478;10.170;2023-06-14T06:52:50;1.73;;;1.37;;
15402;SDS011;7799;53.478;10.170;2023-06-14T06:55:16;1.50;;;1.40;;
15402;SDS011;7799;53.478;10.170;2023-06-14T06:57:43;1.20;;;1.10;;
15402;SDS011;7799;53.478;10.170;2023-06-14T07:00:10;1.37;;;1.27;;
15402;SDS011;7799;53.478;10.170;2023-06-14T07:02:38;1.50;;;1.40;;
15402;SDS011;7799;53.478;10.170;2023-06-14T07:05:04;2.07;;;1.50;;
15402;SDS011;7799;53.478;10.170;2023-06-14T07:07:33;1.50;;;1.40;;
15402;SDS011;7799;53.478;10.170;2023-06-14T07:10:00;1.53;;;1.43;;
15402;SDS011;7799;53.478;10.170;2023-06-14T07:12:29;1.33;;;1.23;;
15402;SDS011;7799;53.478;10.170;2023-06-14T07:14:56;1.67;;;1.40;;
15402;SDS011;7799;53.478;10.170;2023-06-14T07:17:23;1.73;;;1.63;;
15402;SDS011;7799;53.478;10.170;2023-06-14T07:19:50;1.50;;;1.40;;
15402;SDS011;7799;53.478;10.170;2023-06-14T07:22:18;1.67;;;1.57;;
15402;SDS011;7799;53.478;10.170;2023-06-14T07:24:47;2.00;;;1.73;;
15402;SDS011;7799;53.478;10.170;2023-06-14T07:27:13;1.60;;;1.50;;
15402;SDS011;7799;53.478;10.170;2023-06-14T07:29:40;1.60;;;1.50;;
15402;SDS011;7799;53.478;10.170;2023-06-14T07:32:07;1.50;;;1.40;;
15402;SDS011;7799;53.478;10.170;2023-06-14T07:34:33;1.80;;;1.70;;
15402;SDS011;7799;53.478;10.170;2023-06-14T07:37:00;1.50;;;1.40;;
15402;SDS011;7799;53.478;10.170;2023-06-14T07:39:27;2.50;;;1.67;;
15402;SDS011;7799;53.478;10.170;2023-06-14T07:41:55;9.83;;;3.40;;
15402;SDS011;7799;53.478;10.170;2023-06-14T07:44:22;4.03;;;2.13;;
15402;SDS011;7799;53.478;10.170;2023-06-14T07:46:48;8.40;;;3.03;;
15402;SDS011;7799;53.478;10.170;2023-06-14T07:49:15;2.07;;;1.70;;
15402;SDS011;7799;53.478;10.170;2023-06-14T07:51:42;1.50;;;1.40;;
15402;SDS011;7799;53.478;10.170;2023-06-14T07:54:09;1.47;;;1.37;;
15402;SDS011;7799;53.478;10.170;2023-06-14T07:56:36;1.60;;;1.50;;
15402;SDS011;7799;53.478;10.170;2023-06-14T07:59:04;1.00;;;1.00;;
15402;SDS011;7799;53.478;10.170;2023-06-14T08:01:31;1.40;;;1.30;;
15402;SDS011;7799;53.478;10.170;2023-06-14T08:03:58;1.10;;;1.00;;
15402;SDS011;7799;53.478;10.170;2023-06-14T08:06:25;4.73;;;1.60;;
15402;SDS011;7799;53.478;10.170;2023-06-14T08:08:51;1.30;;;1.20;;
15402;SDS011;7799;53.478;10.170;2023-06-14T08:11:18;1.90;;;1.70;;
15402;SDS011;7799;53.478;10.170;2023-06-14T08:13:45;1.40;;;1.30;;
15402;SDS011;7799;53.478;10.170;2023-06-14T08:16:13;2.80;;;1.63;;
15402;SDS011;7799;53.478;10.170;2023-06-14T08:18:39;1.50;;;1.37;;
15402;SDS011;7799;53.478;10.170;2023-06-14T08:21:06;1.40;;;1.30;;
15402;SDS011;7799;53.478;10.170;2023-06-14T08:23:33;1.60;;;1.50;;
15402;SDS011;7799;53.478;10.170;2023-06-14T08:26:01;2.77;;;1.63;;
15402;SDS011;7799;53.478;10.170;2023-06-14T08:28:29;1.70;;;1.60;;
15402;SDS011;7799;53.478;10.170;2023-06-14T08:30:55;2.00;;;1.80;;
15402;SDS011;7799;53.478;10.170;2023-06-14T08:33:23;2.33;;;2.10;;
15402;SDS011;7799;53.478;10.170;2023-06-14T08:35:50;3.13;;;1.93;;
15402;SDS011;7799;53.478;10.170;2023-06-14T08:38:17;2.43;;;1.80;;
15402;SDS011;7799;53.478;10.170;2023-06-14T08:40:43;1.73;;;1.63;;
15402;SDS011;7799;53.478;10.170;2023-06-14T08:43:11;1.67;;;1.57;;
15402;SDS011;7799;53.478;10.170;2023-06-14T08:45:38;2.43;;;1.70;;
15402;SDS011;7799;53.478;10.170;2023-06-14T08:48:05;1.70;;;1.60;;
15402;SDS011;7799;53.478;10.170;2023-06-14T08:50:35;1.80;;;1.50;;
15402;SDS011;7799;53.478;10.170;2023-06-14T08:53:02;1.57;;;1.30;;
15402;SDS011;7799;53.478;10.170;2023-06-14T08:55:30;2.10;;;1.90;;
15402;SDS011;7799;53.478;10.170;2023-06-14T08:57:58;2.63;;;1.97;;
15402;SDS011;7799;53.478;10.170;2023-06-14T09:00:25;2.13;;;1.73;;
15402;SDS011;7799;53.478;10.170;2023-06-14T09:02:53;2.77;;;1.97;;
15402;SDS011;7799;53.478;10.170;2023-06-14T09:05:23;2.53;;;1.40;;
15402;SDS011;7799;53.478;10.170;2023-06-14T09:07:52;1.70;;;1.50;;
15402;SDS011;7799;53.478;10.170;2023-06-14T09:10:20;1.30;;;1.20;;
15402;SDS011;7799;53.478;10.170;2023-06-14T09:12:47;2.90;;;1.93;;
15402;SDS011;7799;53.478;10.170;2023-06-14T09:15:14;1.50;;;1.40;;
15402;SDS011;7799;53.478;10.170;2023-06-14T09:17:40;2.70;;;1.93;;
15402;SDS011;7799;53.478;10.170;2023-06-14T09:20:09;1.87;;;1.70;;
15402;SDS011;7799;53.478;10.170;2023-06-14T09:22:38;1.80;;;1.70;;
15402;SDS011;7799;53.478;10.170;2023-06-14T09:25:08;1.37;;;1.27;;
15402;SDS011;7799;53.478;10.170;2023-06-14T09:27:35;1.90;;;1.58;;
15402;SDS011;7799;53.478;10.170;2023-06-14T09:30:05;1.83;;;1.73;;
15402;SDS011;7799;53.478;10.170;2023-06-14T09:32:36;1.70;;;1.60;;
15402;SDS011;7799;53.478;10.170;2023-06-14T09:35:03;2.53;;;1.77;;
15402;SDS011;7799;53.478;10.170;2023-06-14T09:37:31;1.70;;;1.60;;
15402;SDS011;7799;53.478;10.170;2023-06-14T09:39:58;2.17;;;2.00;;
15402;SDS011;7799;53.478;10.170;2023-06-14T09:42:26;2.78;;;1.90;;
15402;SDS011;7799;53.478;10.170;2023-06-14T09:44:54;1.70;;;1.60;;
15402;SDS011;7799;53.478;10.170;2023-06-14T09:47:21;1.83;;;1.73;;
15402;SDS011;7799;53.478;10.170;2023-06-14T09:49:51;2.03;;;1.83;;
15402;SDS011;7799;53.478;10.170;2023-06-14T09:52:20;2.53;;;2.05;;
15402;SDS011;7799;53.478;10.170;2023-06-14T09:54:47;2.63;;;2.13;;
15402;SDS011;7799;53.478;10.170;2023-06-14T09:57:15;3.08;;;1.92;;
15402;SDS011;7799;53.478;10.170;2023-06-14T09:59:44;2.38;;;2.00;;
15402;SDS011;7799;53.478;10.170;2023-06-14T10:02:14;1.10;;;1.10;;
15402;SDS011;7799;53.478;10.170;2023-06-14T10:04:46;1.83;;;1.73;;
15402;SDS011;7799;53.478;10.170;2023-06-14T10:07:14;1.70;;;1.60;;
15402;SDS011;7799;53.478;10.170;2023-06-14T10:09:41;2.05;;;1.85;;
15402;SDS011;7799;53.478;10.170;2023-06-14T10:12:14;2.55;;;2.00;;
15402;SDS011;7799;53.478;10.170;2023-06-14T10:14:47;2.75;;;2.33;;
15402;SDS011;7799;53.478;10.170;2023-06-14T10:17:17;1.90;;;1.73;;
15402;SDS011;7799;53.478;10.170;2023-06-14T10:19:48;1.73;;;1.63;;
15402;SDS011;7799;53.478;10.170;2023-06-14T10:22:19;1.50;;;1.40;;
15402;SDS011;7799;53.478;10.170;2023-06-14T10:24:50;1.83;;;1.70;;
15402;SDS011;7799;53.478;10.170;2023-06-14T10:27:17;1.70;;;1.60;;
15402;SDS011;7799;53.478;10.170;2023-06-14T10:30:06;2.27;;;1.77;;
15402;SDS011;7799;53.478;10.170;2023-06-14T10:32:34;1.80;;;1.60;;
15402;SDS011;7799;53.478;10.170;2023-06-14T10:35:01;1.60;;;1.50;;
15402;SDS011;7799;53.478;10.170;2023-06-14T10:37:31;2.90;;;2.17;;
15402;SDS011;7799;53.478;10.170;2023-06-14T10:39:58;1.85;;;1.75;;
15402;SDS011;7799;53.478;10.170;2023-06-14T10:42:27;3.00;;;2.47;;
15402;SDS011;7799;53.478;10.170;2023-06-14T10:44:54;3.35;;;1.80;;
15402;SDS011;7799;53.478;10.170;2023-06-14T10:47:24;2.55;;;2.00;;
15402;SDS011;7799;53.478;10.170;2023-06-14T10:49:55;2.50;;;2.30;;
15402;SDS011;7799;53.478;10.170;2023-06-14T10:52:26;2.28;;;2.08;;
15402;SDS011;7799;53.478;10.170;2023-06-14T10:55:00;2.10;;;1.92;;
15402;SDS011;7799;53.478;10.170;2023-06-14T10:57:36;2.78;;;2.03;;
15402;SDS011;7799;53.478;10.170;2023-06-14T11:00:06;2.20;;;2.00;;
15402;SDS011;7799;53.478;10.170;2023-06-14T11:05:51;1.88;;;1.77;;
15402;SDS011;7799;53.478;10.170;2023-06-14T11:08:46;2.17;;;1.63;;
15402;SDS011;7799;53.478;10.170;2023-06-14T11:11:24;1.65;;;1.55;;
15402;SDS011;7799;53.478;10.170;2023-06-14T11:13:56;2.15;;;1.55;;
15402;SDS011;7799;53.478;10.170;2023-06-14T11:16:25;1.70;;;1.30;;
15402;SDS011;7799;53.478;10.170;2023-06-14T11:18:53;1.67;;;1.58;;
15402;SDS011;7799;53.478;10.170;2023-06-14T11:21:21;1.90;;;1.75;;
15402;SDS011;7799;53.478;10.170;2023-06-14T11:23:50;2.35;;;2.15;;
15402;SDS011;7799;53.478;10.170;2023-06-14T11:26:24;2.47;;;2.20;;
15402;SDS011;7799;53.478;10.170;2023-06-14T11:28:54;2.65;;;1.88;;
15402;SDS011;7799;53.478;10.170;2023-06-14T11:31:22;2.08;;;1.70;;
15402;SDS011;7799;53.478;10.170;2023-06-14T11:33:49;1.77;;;1.40;;
15402;SDS011;7799;53.478;10.170;2023-06-14T11:36:16;1.42;;;1.33;;
15402;SDS011;7799;53.478;10.170;2023-06-14T11:38:44;2.53;;;1.73;;
15402;SDS011;7799;53.478;10.170;2023-06-14T11:41:11;3.78;;;2.00;;
15402;SDS011;7799;53.478;10.170;2023-06-14T11:43:37;1.70;;;1.60;;
15402;SDS011;7799;53.478;10.170;2023-06-14T11:46:11;2.33;;;1.60;;
15402;SDS011;7799;53.478;10.170;2023-06-14T11:48:40;1.95;;;1.85;;
15402;SDS011;7799;53.478;10.170;2023-06-14T11:51:08;2.10;;;1.88;;
15402;SDS011;7799;53.478;10.170;2023-06-14T11:53:35;2.03;;;1.70;;
15402;SDS011;7799;53.478;10.170;2023-06-14T11:56:03;1.80;;;1.70;;
15402;SDS011;7799;53.478;10.170;2023-06-14T11:58:30;1.42;;;1.33;;
15402;SDS011;7799;53.478;10.170;2023-06-14T12:00:57;1.27;;;1.17;;
15402;SDS011;7799;53.478;10.170;2023-06-14T12:03:24;1.40;;;1.30;;
15402;SDS011;7799;53.478;10.170;2023-06-14T12:06:01;1.90;;;1.70;;
15402;SDS011;7799;53.478;10.170;2023-06-14T12:08:33;2.05;;;1.80;;
15402;SDS011;7799;53.478;10.170;2023-06-14T12:11:05;1.85;;;1.73;;
15402;SDS011;7799;53.478;10.170;2023-06-14T12:13:33;1.98;;;1.65;;
15402;SDS011;7799;53.478;10.170;2023-06-14T12:16:01;1.63;;;1.45;;
15402;SDS011;7799;53.478;10.170;2023-06-14T12:18:32;1.55;;;1.45;;
15402;SDS011;7799;53.478;10.170;2023-06-14T12:21:00;2.08;;;1.70;;
15402;SDS011;7799;53.478;10.170;2023-06-14T12:23:38;1.67;;;1.50;;
15402;SDS011;7799;53.478;10.170;2023-06-14T12:26:07;2.28;;;1.80;;
15402;SDS011;7799;53.478;10.170;2023-06-14T12:28:34;1.83;;;1.70;;
15402;SDS011;7799;53.478;10.170;2023-06-14T12:31:00;2.00;;;1.85;;
15402;SDS011;7799;53.478;10.170;2023-06-14T12:33:27;1.80;;;1.65;;
15402;SDS011;7799;53.478;10.170;2023-06-14T12:35:54;2.80;;;1.73;;
15402;SDS011;7799;53.478;10.170;2023-06-14T12:38:22;2.10;;;1.50;;
15402;SDS011;7799;53.478;10.170;2023-06-14T12:40:49;2.10;;;1.90;;
15402;SDS011;7799;53.478;10.170;2023-06-14T12:43:17;1.55;;;1.45;;
15402;SDS011;7799;53.478;10.170;2023-06-14T12:45:44;1.73;;;1.55;;
15402;SDS011;7799;53.478;10.170;2023-06-14T12:48:10;1.40;;;1.30;;
15402;SDS011;7799;53.478;10.170;2023-06-14T12:50:37;1.10;;;1.00;;
15402;SDS011;7799;53.478;10.170;2023-06-14T12:53:04;1.30;;;1.20;;
15402;SDS011;7799;53.478;10.170;2023-06-14T12:55:30;1.40;;;1.30;;
15402;SDS011;7799;53.478;10.170;2023-06-14T12:57:58;1.77;;;1.60;;
15402;SDS011;7799;53.478;10.170;2023-06-14T13:00:26;2.58;;;1.60;;
15402;SDS011;7799;53.478;10.170;2023-06-14T13:02:55;3.00;;;2.15;;
15402;SDS011;7799;53.478;10.170;2023-06-14T13:05:21;2.08;;;1.67;;
15402;SDS011;7799;53.478;10.170;2023-06-14T13:07:48;1.77;;;1.67;;
15402;SDS011;7799;53.478;10.170;2023-06-14T13:10:15;1.67;;;1.30;;
15402;SDS011;7799;53.478;10.170;2023-06-14T13:12:42;1.50;;;1.40;;
15402;SDS011;7799;53.478;10.170;2023-06-14T13:15:09;1.50;;;1.40;;
15402;SDS011;7799;53.478;10.170;2023-06-14T13:17:37;1.95;;;1.38;;
15402;SDS011;7799;53.478;10.170;2023-06-14T13:20:04;2.25;;;2.05;;
15402;SDS011;7799;53.478;10.170;2023-06-14T13:22:31;1.60;;;1.50;;
15402;SDS011;7799;53.478;10.170;2023-06-14T13:24:58;3.00;;;1.65;;
15402;SDS011;7799;53.478;10.170;2023-06-14T13:27:25;1.42;;;1.33;;
15402;SDS011;7799;53.478;10.170;2023-06-14T13:29:52;1.30;;;1.20;;
15402;SDS011;7799;53.478;10.170;2023-06-14T13:32:20;1.85;;;1.55;;
15402;SDS011;7799;53.478;10.170;2023-06-14T13:34:48;1.52;;;1.23;;
15402;SDS011;7799;53.478;10.170;2023-06-14T13:37:15;1.25;;;1.10;;
15402;SDS011;7799;53.478;10.170;2023-06-14T13:39:42;2.88;;;1.40;;
15402;SDS011;7799;53.478;10.170;2023-06-14T13:42:08;1.60;;;1.17;;
15402;SDS011;7799;53.478;10.170;2023-06-14T13:44:35;1.38;;;1.27;;
15402;SDS011;7799;53.478;10.170;2023-06-14T13:47:02;1.80;;;1.50;;
15402;SDS011;7799;53.478;10.170;2023-06-14T13:49:29;2.92;;;1.77;;
15402;SDS011;7799;53.478;10.170;2023-06-14T13:51:57;2.97;;;1.73;;
15402;SDS011;7799;53.478;10.170;2023-06-14T13:54:24;1.73;;;1.45;;
15402;SDS011;7799;53.478;10.170;2023-06-14T13:56:50;1.40;;;1.30;;
15402;SDS011;7799;53.478;10.170;2023-06-14T13:59:17;1.67;;;1.27;;
15402;SDS011;7799;53.478;10.170;2023-06-14T14:01:43;0.98;;;0.98;;
15402;SDS011;7799;53.478;10.170;2023-06-14T14:04:10;1.10;;;1.10;;
15402;SDS011;7799;53.478;10.170;2023-06-14T14:06:37;1.17;;;1.08;;
15402;SDS011;7799;53.478;10.170;2023-06-14T14:09:05;1.17;;;1.08;;
15402;SDS011;7799;53.478;10.170;2023-06-14T14:11:32;2.00;;;1.50;;
15402;SDS011;7799;53.478;10.170;2023-06-14T14:13:59;1.80;;;1.70;;
15402;SDS011;7799;53.478;10.170;2023-06-14T14:16:26;1.38;;;1.27;;
15402;SDS011;7799;53.478;10.170;2023-06-14T14:18:53;1.35;;;1.23;;
15402;SDS011;7799;53.478;10.170;2023-06-14T14:21:19;2.13;;;1.52;;
15402;SDS011;7799;53.478;10.170;2023-06-14T14:23:46;1.27;;;1.13;;
15402;SDS011;7799;53.478;10.170;2023-06-14T14:26:16;1.85;;;1.20;;
15402;SDS011;7799;53.478;10.170;2023-06-14T14:28:42;1.50;;;1.40;;
15402;SDS011;7799;53.478;10.170;2023-06-14T14:31:09;1.33;;;1.23;;
15402;SDS011;7799;53.478;10.170;2023-06-14T14:33:36;1.52;;;1.40;;
15402;SDS011;7799;53.478;10.170;2023-06-14T14:36:03;1.60;;;1.50;;
15402;SDS011;7799;53.478;10.170;2023-06-14T14:38:32;1.52;;;1.30;;
15402;SDS011;7799;53.478;10.170;2023-06-14T14:40:58;1.70;;;1.55;;
15402;SDS011;7799;53.478;10.170;2023-06-14T14:43:26;1.25;;;1.15;;
15402;SDS011;7799;53.478;10.170;2023-06-14T14:45:56;1.50;;;1.40;;
15402;SDS011;7799;53.478;10.170;2023-06-14T14:48:22;1.30;;;1.20;;
15402;SDS011;7799;53.478;10.170;2023-06-14T14:50:49;2.35;;;1.42;;
15402;SDS011;7799;53.478;10.170;2023-06-14T14:53:16;1.40;;;1.30;;
15402;SDS011;7799;53.478;10.170;2023-06-14T14:55:42;1.77;;;1.67;;